createdAt,value
2017-11-03T00:01:44.107Z,39.88
2017-11-03T00:04:13.468Z,48.63
2017-11-03T00:09:11.147Z,39.97
2017-11-03T00:11:38.676Z,38.75
2017-11-03T00:16:38.619Z,45.25
2017-11-03T00:19:05.788Z,41.70
2017-11-03T00:21:33.914Z,46.95
2017-11-03T00:24:00.601Z,43.63
2017-11-03T00:28:58.344Z,37.55
2017-11-03T00:31:25.055Z,37.95
2017-11-03T00:33:56.040Z,39.55
2017-11-03T00:36:24.087Z,37.83
2017-11-03T00:41:24.120Z,36.70
2017-11-03T00:43:51.975Z,35.33
2017-11-03T00:46:19.157Z,34.72
2017-11-03T00:48:46.787Z,37.38
2017-11-03T00:51:14.845Z,34.30
2017-11-03T00:53:43.136Z,39.60
2017-11-03T00:56:11.808Z,38.50
2017-11-03T00:58:41.092Z,38.15
2017-11-03T01:01:08.704Z,36.50
2017-11-03T01:03:37.241Z,37.08
2017-11-03T01:06:05.123Z,38.45
2017-11-03T01:08:33.292Z,35.97
2017-11-03T01:11:01.175Z,39.60
2017-11-03T01:15:59.863Z,44.65
2017-11-03T01:18:26.572Z,43.85
2017-11-03T01:20:53.672Z,40.25
2017-11-03T01:23:20.420Z,42.45
2017-11-03T01:25:47.910Z,42.00
2017-11-03T01:28:14.631Z,43.17
2017-11-03T01:30:41.416Z,37.78
2017-11-03T01:33:12.153Z,43.70
2017-11-03T01:35:43.334Z,46.47
2017-11-03T01:38:12.571Z,41.88
2017-11-03T01:40:41.078Z,35.88
2017-11-03T01:43:09.556Z,40.17
2017-11-03T01:45:37.141Z,48.58
2017-11-03T01:48:04.015Z,41.65
2017-11-03T01:50:31.559Z,39.80
2017-11-03T01:53:00.536Z,38.10
2017-11-03T01:55:27.523Z,41.67
2017-11-03T01:57:54.749Z,61.00
2017-11-03T02:00:22.599Z,51.37
2017-11-03T02:02:50.108Z,48.97
2017-11-03T02:05:18.972Z,48.85
2017-11-03T02:07:45.691Z,46.15
2017-11-03T02:10:13.492Z,41.17
2017-11-03T02:12:40.199Z,44.55
2017-11-03T02:15:08.684Z,44.85
2017-11-03T02:17:36.606Z,48.55
2017-11-03T02:25:05.782Z,39.42
2017-11-03T02:27:33.491Z,38.47
2017-11-03T02:30:01.141Z,38.03
2017-11-03T02:32:28.232Z,43.45
2017-11-03T02:34:54.996Z,40.92
2017-11-03T02:37:23.645Z,38.42
2017-11-03T02:39:51.940Z,42.22
2017-11-03T02:42:20.945Z,36.60
2017-11-03T02:44:48.521Z,41.95
2017-11-03T02:47:15.635Z,49.15
2017-11-03T02:49:44.660Z,66.28
2017-11-03T02:52:11.608Z,59.55
2017-11-03T02:54:38.319Z,57.13
2017-11-03T02:59:36.943Z,54.92
2017-11-03T03:02:03.672Z,53.10
2017-11-03T03:04:30.380Z,50.67
2017-11-03T03:06:57.063Z,46.80
2017-11-03T03:09:25.200Z,61.80
2017-11-03T03:14:22.903Z,71.68
2017-11-03T03:16:50.991Z,59.70
2017-11-03T03:19:20.250Z,64.75
2017-11-03T03:21:48.180Z,63.05
2017-11-03T03:24:16.454Z,57.62
2017-11-03T03:26:44.162Z,56.37
2017-11-03T03:29:10.888Z,80.70
2017-11-03T03:31:37.575Z,63.47
2017-11-03T03:34:07.934Z,59.72
2017-11-03T03:36:35.294Z,53.55
2017-11-03T03:41:38.852Z,85.12
2017-11-03T03:44:06.955Z,64.70
2017-11-03T03:46:35.191Z,83.80
2017-11-03T03:49:03.609Z,70.65
2017-11-03T03:51:31.031Z,63.85
2017-11-03T03:54:00.307Z,66.80
2017-11-03T03:56:27.531Z,82.45
2017-11-03T03:58:55.713Z,64.75
2017-11-03T04:01:22.698Z,57.15
2017-11-03T04:03:50.349Z,59.10
2017-11-03T04:06:17.368Z,57.05
2017-11-03T04:08:44.056Z,67.78
2017-11-03T04:11:10.787Z,84.75
2017-11-03T04:13:37.780Z,55.30
2017-11-03T04:18:36.403Z,55.90
2017-11-03T04:21:03.506Z,67.75
2017-11-03T04:23:30.195Z,86.30
2017-11-03T04:25:56.923Z,85.53
2017-11-03T04:28:24.390Z,80.50
2017-11-03T04:30:51.099Z,75.90
2017-11-03T04:33:20.334Z,76.57
2017-11-03T04:35:47.727Z,70.20
2017-11-03T04:38:14.469Z,58.95
2017-11-03T04:40:41.195Z,66.43
2017-11-03T04:43:08.594Z,65.10
2017-11-03T04:45:36.156Z,77.43
2017-11-03T04:48:03.227Z,64.28
2017-11-03T04:50:33.407Z,67.10
2017-11-03T04:53:00.812Z,63.38
2017-11-03T04:55:27.780Z,60.33
2017-11-03T04:57:55.462Z,51.20
2017-11-03T05:00:26.231Z,86.78
2017-11-03T05:05:25.913Z,74.10
2017-11-03T05:07:52.672Z,66.30
2017-11-03T05:10:19.415Z,65.07
2017-11-03T05:12:47.012Z,81.35
2017-11-03T05:15:15.613Z,73.60
2017-11-03T05:17:43.017Z,65.85
2017-11-03T05:20:09.735Z,64.72
2017-11-03T05:22:41.592Z,92.22
2017-11-03T05:25:09.120Z,88.00
2017-11-03T05:27:35.831Z,72.03
2017-11-03T05:30:04.404Z,80.03
2017-11-03T05:32:38.696Z,58.50
2017-11-03T05:35:05.427Z,65.12
2017-11-03T05:37:32.117Z,73.40
2017-11-03T05:40:03.456Z,79.37
2017-11-03T05:45:02.111Z,79.53
2017-11-03T05:47:32.976Z,66.40
2017-11-03T05:50:00.446Z,75.22
2017-11-03T05:52:28.440Z,79.93
2017-11-03T05:57:28.480Z,61.65
2017-11-03T05:59:55.303Z,76.85
2017-11-03T06:02:22.896Z,68.32
2017-11-03T06:04:49.592Z,77.68
2017-11-03T06:07:17.845Z,72.32
2017-11-03T06:09:44.540Z,88.12
2017-11-03T06:12:11.251Z,72.82
2017-11-03T06:14:38.643Z,81.70
2017-11-03T06:17:05.357Z,83.62
2017-11-03T06:19:32.402Z,78.72
2017-11-03T06:21:59.390Z,68.55
2017-11-03T06:24:26.514Z,74.78
2017-11-03T06:26:53.633Z,73.65
2017-11-03T06:29:20.649Z,128.48
2017-11-03T06:31:47.394Z,116.37
2017-11-03T06:34:15.239Z,117.60
2017-11-03T06:44:30.440Z,80.78
2017-11-03T06:46:57.840Z,97.65
2017-11-03T06:49:25.000Z,141.20
2017-11-03T06:51:52.030Z,102.40
2017-11-03T06:54:19.674Z,91.78
2017-11-03T06:56:46.420Z,80.47
2017-11-03T06:59:13.107Z,88.70
2017-11-03T07:01:39.822Z,125.07
2017-11-03T07:04:06.605Z,110.10
2017-11-03T07:06:33.372Z,90.78
2017-11-03T07:09:00.775Z,88.90
2017-11-03T07:11:29.806Z,100.00
2017-11-03T07:13:57.663Z,98.97
2017-11-03T07:16:25.283Z,89.72
2017-11-03T07:18:53.474Z,87.68
2017-11-03T07:21:23.218Z,75.18
2017-11-03T07:23:50.753Z,87.82
2017-11-03T07:26:17.854Z,116.85
2017-11-03T07:28:44.555Z,82.37
2017-11-03T07:31:11.658Z,85.55
2017-11-03T07:33:39.134Z,83.22
2017-11-03T07:36:06.265Z,92.93
2017-11-03T07:38:33.005Z,84.80
2017-11-03T07:40:59.719Z,81.78
2017-11-03T07:43:26.870Z,83.72
2017-11-03T07:45:55.346Z,73.45
2017-11-03T07:48:22.063Z,89.57
2017-11-03T07:50:49.219Z,76.87
2017-11-03T07:53:16.828Z,71.55
2017-11-03T07:55:48.735Z,91.82
2017-11-03T07:58:15.860Z,79.37
2017-11-03T08:00:47.412Z,78.47
2017-11-03T08:03:15.040Z,86.10
2017-11-03T08:05:41.743Z,81.68
2017-11-03T08:08:08.473Z,76.78
2017-11-03T08:10:37.311Z,73.50
2017-11-03T08:13:05.633Z,74.75
2017-11-03T08:15:34.400Z,69.45
2017-11-03T08:18:03.915Z,63.25
2017-11-03T08:20:31.341Z,60.15
2017-11-03T08:28:03.933Z,61.10
2017-11-03T08:30:31.434Z,58.97
2017-11-03T08:32:59.142Z,59.95
2017-11-03T08:35:26.088Z,63.87
2017-11-03T08:37:54.060Z,68.32
2017-11-03T08:40:21.491Z,67.20
2017-11-03T08:42:48.916Z,58.83
2017-11-03T08:45:16.323Z,59.72
2017-11-03T08:47:43.102Z,59.75
2017-11-03T08:50:10.711Z,58.25
2017-11-03T08:52:38.120Z,63.20
2017-11-03T08:55:05.254Z,57.72
2017-11-03T08:57:32.003Z,59.85
2017-11-03T08:59:58.716Z,59.45
2017-11-03T09:02:25.859Z,60.28
2017-11-03T09:04:53.507Z,53.90
2017-11-03T09:07:22.011Z,61.50
2017-11-03T09:09:50.785Z,59.63
2017-11-03T09:12:17.471Z,55.60
2017-11-03T09:14:46.356Z,61.80
2017-11-03T09:17:13.431Z,62.25
2017-11-03T09:19:40.679Z,53.58
2017-11-03T09:22:07.367Z,51.47
2017-11-03T09:24:34.950Z,56.20
2017-11-03T09:27:03.839Z,55.35
2017-11-03T09:29:30.543Z,51.97
2017-11-03T09:31:57.677Z,53.03
2017-11-03T09:34:25.347Z,54.80
2017-11-03T09:36:53.186Z,53.80
2017-11-03T09:39:21.426Z,47.25
2017-11-03T09:41:48.124Z,49.13
2017-11-03T09:44:15.078Z,46.53
2017-11-03T09:46:41.779Z,48.33
2017-11-03T09:49:10.046Z,42.60
2017-11-03T09:54:10.575Z,46.70
2017-11-03T09:56:37.508Z,41.00
2017-11-03T09:59:05.832Z,40.72
2017-11-03T10:01:33.671Z,39.72
2017-11-03T10:06:33.819Z,37.85
2017-11-03T10:09:00.784Z,39.67
2017-11-03T10:11:28.661Z,41.60
2017-11-03T10:13:56.227Z,37.33
2017-11-03T10:16:22.983Z,37.80
2017-11-03T10:18:49.695Z,36.38
2017-11-03T10:21:16.423Z,37.40
2017-11-03T10:23:43.161Z,35.58
2017-11-03T10:26:10.768Z,36.90
2017-11-03T10:28:37.887Z,34.67
2017-11-03T10:31:04.819Z,36.20
2017-11-03T10:33:32.240Z,33.00
2017-11-03T10:35:59.695Z,34.85
2017-11-03T10:38:27.652Z,35.28
2017-11-03T10:40:56.188Z,34.83
2017-11-03T10:43:23.108Z,35.45
2017-11-03T10:45:50.491Z,34.10
2017-11-03T10:49:17.595Z,36.13
2017-11-03T10:51:46.412Z,35.38
2017-11-03T10:54:13.428Z,33.45
2017-11-03T10:56:40.124Z,34.03
2017-11-03T10:59:07.664Z,30.58
2017-11-03T11:01:34.347Z,35.95
2017-11-03T11:04:01.318Z,32.63
2017-11-03T11:06:30.668Z,30.25
2017-11-03T11:08:57.812Z,32.13
2017-11-03T11:11:24.516Z,30.92
2017-11-03T11:13:51.207Z,28.10
2017-11-03T11:16:18.705Z,31.10
2017-11-03T11:18:45.395Z,32.00
2017-11-03T11:21:12.174Z,33.15
2017-11-03T11:23:39.112Z,33.70
2017-11-03T11:26:07.204Z,34.30
2017-11-03T11:28:33.891Z,35.72
2017-11-03T11:31:00.608Z,37.50
2017-11-03T11:33:27.286Z,36.13
2017-11-03T11:35:53.988Z,33.85
2017-11-03T11:38:21.459Z,33.58
2017-11-03T11:40:50.900Z,35.25
2017-11-03T11:43:17.587Z,31.40
2017-11-03T11:45:44.300Z,33.85
2017-11-03T11:48:11.091Z,33.42
2017-11-03T11:50:39.334Z,35.42
2017-11-03T11:53:06.316Z,35.40
2017-11-03T11:55:33.983Z,37.40
2017-11-03T11:58:01.454Z,37.97
2017-11-03T12:00:28.395Z,35.78
2017-11-03T12:02:55.075Z,34.50
2017-11-03T12:05:22.483Z,36.38
2017-11-03T12:07:49.180Z,34.13
2017-11-03T12:10:15.960Z,35.25
2017-11-03T12:12:42.654Z,35.92
2017-11-03T12:15:09.375Z,33.42
2017-11-03T12:17:36.292Z,35.28
2017-11-03T12:20:03.040Z,35.97
2017-11-03T12:22:29.752Z,32.97
2017-11-03T12:24:56.464Z,33.53
2017-11-03T12:27:23.152Z,34.50
2017-11-03T12:29:49.844Z,34.70
2017-11-03T12:32:16.564Z,34.22
2017-11-03T12:34:43.972Z,31.95
2017-11-03T12:37:10.677Z,31.17
2017-11-03T12:39:37.363Z,32.50
2017-11-03T12:42:04.084Z,35.50
2017-11-03T12:44:30.767Z,33.90
2017-11-03T12:46:58.194Z,31.83
2017-11-03T12:49:24.883Z,32.80
2017-11-03T12:51:51.817Z,30.30
2017-11-03T12:54:18.512Z,32.25
2017-11-03T12:56:45.227Z,32.00
2017-11-03T12:59:11.916Z,32.42
2017-11-03T13:01:38.619Z,27.83
2017-11-03T13:04:05.307Z,31.02
2017-11-03T13:06:32.055Z,31.73
2017-11-03T13:08:58.747Z,33.20
2017-11-03T13:11:25.762Z,28.23
2017-11-03T13:13:52.446Z,29.48
2017-11-03T13:16:19.819Z,31.52
2017-11-03T13:18:46.504Z,32.85
2017-11-03T13:21:13.211Z,31.70
2017-11-03T13:23:39.899Z,32.83
2017-11-03T13:26:06.943Z,29.58
2017-11-03T13:28:33.627Z,31.20
2017-11-03T13:31:00.331Z,29.70
2017-11-03T13:33:27.015Z,28.62
2017-11-03T13:35:53.719Z,29.33
2017-11-03T13:38:20.411Z,28.15
2017-11-03T13:40:47.122Z,27.62
2017-11-03T13:43:13.806Z,28.02
2017-11-03T13:45:40.496Z,25.65
2017-11-03T13:48:07.210Z,29.58
2017-11-03T13:50:33.899Z,26.52
2017-11-03T13:53:00.604Z,26.83
2017-11-03T13:55:27.291Z,25.75
2017-11-03T13:57:54.243Z,27.85
2017-11-03T14:00:21.219Z,27.27
2017-11-03T14:02:47.928Z,26.25
2017-11-03T14:05:14.618Z,25.85
2017-11-03T14:07:41.327Z,23.52
2017-11-03T14:10:08.006Z,25.25
2017-11-03T14:12:34.936Z,25.98
2017-11-03T14:15:01.977Z,26.90
2017-11-03T14:17:28.683Z,25.08
2017-11-03T14:19:55.376Z,23.62
2017-11-03T14:22:22.087Z,25.30
2017-11-03T14:24:48.781Z,23.70
2017-11-03T14:27:15.491Z,23.95
2017-11-03T14:29:42.183Z,24.80
2017-11-03T14:32:09.119Z,25.17
2017-11-03T14:34:36.243Z,21.15
2017-11-03T14:37:02.943Z,22.45
2017-11-03T14:39:29.631Z,23.35
2017-11-03T14:41:56.711Z,24.00
2017-11-03T14:44:23.399Z,23.00
2017-11-03T14:46:50.110Z,21.52
2017-11-03T14:49:16.809Z,24.25
2017-11-03T14:51:43.520Z,22.70
2017-11-03T14:54:10.205Z,22.10
2017-11-03T14:56:37.603Z,21.73
2017-11-03T14:59:04.315Z,22.67
2017-11-03T15:01:31.696Z,22.08
2017-11-03T15:03:58.406Z,23.15
2017-11-03T15:06:25.439Z,20.20
2017-11-03T15:08:52.147Z,20.30
2017-11-03T15:11:18.844Z,18.90
2017-11-03T15:13:45.788Z,20.58
2017-11-03T15:16:12.895Z,20.62
2017-11-03T15:18:39.608Z,20.62
2017-11-03T15:21:06.539Z,21.10
2017-11-03T15:23:33.252Z,20.58
2017-11-03T15:26:00.235Z,19.08
2017-11-03T15:28:26.948Z,20.45
2017-11-03T15:30:53.638Z,21.30
2017-11-03T15:33:20.752Z,20.00
2017-11-03T15:35:47.711Z,20.75
2017-11-03T15:38:14.416Z,20.85
2017-11-03T15:40:41.107Z,20.10
2017-11-03T15:43:07.812Z,20.62
2017-11-03T15:45:34.491Z,20.92
2017-11-03T15:48:01.194Z,20.55
2017-11-03T15:50:27.885Z,19.77
2017-11-03T15:52:54.878Z,20.48
2017-11-03T15:55:21.568Z,21.60
2017-11-03T15:57:48.276Z,21.67
2017-11-03T16:00:14.956Z,24.15
2017-11-03T16:02:41.659Z,21.73
2017-11-03T16:05:08.351Z,20.05
2017-11-03T16:07:35.061Z,22.50
2017-11-03T16:10:01.752Z,26.15
2017-11-03T16:12:28.435Z,25.60
2017-11-03T16:14:55.563Z,25.08
2017-11-03T16:17:22.271Z,23.58
2017-11-03T16:19:48.976Z,24.25
2017-11-03T16:22:15.661Z,24.20
2017-11-03T16:24:42.383Z,23.75
2017-11-03T16:27:09.068Z,25.65
2017-11-03T16:29:35.776Z,26.12
2017-11-03T16:32:02.469Z,25.05
2017-11-03T16:34:29.180Z,26.50
2017-11-03T16:36:55.867Z,26.80
2017-11-03T16:39:22.795Z,26.20
2017-11-03T16:41:49.488Z,24.02
2017-11-03T16:44:16.200Z,26.55
2017-11-03T16:46:42.908Z,25.25
2017-11-03T16:49:09.611Z,29.40
2017-11-03T16:51:36.304Z,26.60
2017-11-03T16:54:03.012Z,27.40
2017-11-03T16:56:29.699Z,27.37
2017-11-03T16:58:56.417Z,24.85
2017-11-03T17:01:23.390Z,32.80
2017-11-03T17:03:50.100Z,27.65
2017-11-03T17:06:16.787Z,26.17
2017-11-03T17:08:43.496Z,31.35
2017-11-03T17:11:10.447Z,30.40
2017-11-03T17:13:37.168Z,27.10
2017-11-03T17:16:03.862Z,29.95
2017-11-03T17:18:30.567Z,25.15
2017-11-03T17:20:57.255Z,31.00
2017-11-03T17:23:23.959Z,26.85
2017-11-03T17:25:50.648Z,28.95
2017-11-03T17:28:17.336Z,28.85
2017-11-03T17:30:44.040Z,27.95
2017-11-03T17:33:10.724Z,27.80
2017-11-03T17:35:37.431Z,25.67
2017-11-03T17:38:04.483Z,27.67
2017-11-03T17:40:31.203Z,27.92
2017-11-03T17:42:57.892Z,26.05
2017-11-03T17:45:24.603Z,33.00
2017-11-03T17:47:51.287Z,29.92
2017-11-03T17:50:17.991Z,32.78
2017-11-03T17:52:44.731Z,28.58
2017-11-03T17:55:11.434Z,30.30
2017-11-03T17:57:38.116Z,29.25
2017-11-03T18:00:04.814Z,32.25
2017-11-03T18:02:31.834Z,31.17
2017-11-03T18:04:58.972Z,30.67
2017-11-03T18:07:25.659Z,30.05
2017-11-03T18:09:52.372Z,28.67
2017-11-03T18:12:19.059Z,31.87
2017-11-03T18:14:45.771Z,33.25
2017-11-03T18:17:12.467Z,31.45
2017-11-03T18:19:39.195Z,30.88
2017-11-03T18:22:05.879Z,33.55
2017-11-03T18:24:32.582Z,34.45
2017-11-03T18:26:59.632Z,32.60
2017-11-03T18:29:26.353Z,30.27
2017-11-03T18:31:53.035Z,31.65
2017-11-03T18:34:20.892Z,30.67
2017-11-03T18:36:48.308Z,32.97
2017-11-03T18:39:14.990Z,31.90
2017-11-03T18:41:41.695Z,31.75
2017-11-03T18:44:08.391Z,31.75
2017-11-03T18:46:35.377Z,34.85
2017-11-03T18:49:02.067Z,33.80
2017-11-03T18:51:28.776Z,33.05
2017-11-03T18:53:55.463Z,32.47
2017-11-03T18:56:22.577Z,32.35
2017-11-03T18:58:49.263Z,32.42
2017-11-03T19:01:16.536Z,37.10
2017-11-03T19:03:43.220Z,34.53
2017-11-03T19:06:09.929Z,35.22
2017-11-03T19:08:37.000Z,38.55
2017-11-03T19:11:04.596Z,34.72
2017-11-03T19:13:31.275Z,36.50
2017-11-03T19:15:57.979Z,36.83
2017-11-03T19:18:24.676Z,35.45
2017-11-03T19:20:51.375Z,32.22
2017-11-03T19:23:18.795Z,32.15
2017-11-03T19:25:45.515Z,33.80
2017-11-03T19:28:13.011Z,30.70
2017-11-03T19:30:39.725Z,36.00
2017-11-03T19:33:06.407Z,30.75
2017-11-03T19:35:33.115Z,31.90
2017-11-03T19:37:59.804Z,30.30
2017-11-03T19:40:26.514Z,28.58
2017-11-03T19:42:53.203Z,28.58
2017-11-03T19:45:20.172Z,32.03
2017-11-03T19:47:47.088Z,31.90
2017-11-03T19:50:14.035Z,31.08
2017-11-03T19:52:41.067Z,31.95
2017-11-03T19:55:09.080Z,27.75
2017-11-03T19:57:35.812Z,27.17
2017-11-03T20:00:02.543Z,28.00
2017-11-03T20:02:29.515Z,27.42
2017-11-03T20:04:56.203Z,26.62
2017-11-03T20:07:23.478Z,24.77
2017-11-03T20:09:50.167Z,26.80
2017-11-03T20:12:16.855Z,25.48
2017-11-03T20:14:43.567Z,24.87
2017-11-03T20:17:10.247Z,25.10
2017-11-03T20:19:36.956Z,28.00
2017-11-03T20:22:04.171Z,29.30
2017-11-03T20:24:31.211Z,28.67
2017-11-03T20:26:57.899Z,29.33
2017-11-03T20:29:25.121Z,26.30
2017-11-03T20:31:51.840Z,26.92
2017-11-03T20:34:18.535Z,26.65
2017-11-03T20:36:45.243Z,26.48
2017-11-03T20:39:11.951Z,27.00
2017-11-03T20:41:39.784Z,24.70
2017-11-03T20:44:06.896Z,26.42
2017-11-03T20:46:33.602Z,27.65
2017-11-03T20:49:02.186Z,28.02
2017-11-03T20:51:32.921Z,25.58
2017-11-03T20:53:59.607Z,27.35
2017-11-03T20:56:26.312Z,28.55
2017-11-03T20:58:53.409Z,27.37
2017-11-03T21:01:20.135Z,26.05
2017-11-03T21:03:46.887Z,28.42
2017-11-03T21:06:13.854Z,26.58
2017-11-03T21:08:40.539Z,24.35
2017-11-03T21:11:08.290Z,29.67
2017-11-03T21:13:35.752Z,27.48
2017-11-03T21:16:04.603Z,27.48
2017-11-03T21:18:31.948Z,27.23
2017-11-03T21:20:58.635Z,30.80
2017-11-03T21:23:25.340Z,29.00
2017-11-03T21:25:52.477Z,28.73
2017-11-03T21:28:19.220Z,30.85
2017-11-03T21:30:46.020Z,27.25
2017-11-03T21:33:12.731Z,29.00
2017-11-03T21:35:41.205Z,27.55
2017-11-03T21:38:08.964Z,31.30
2017-11-03T21:40:35.910Z,26.98
2017-11-03T21:43:04.838Z,30.48
2017-11-03T21:45:32.607Z,27.70
2017-11-03T21:48:00.175Z,28.67
2017-11-03T21:50:26.911Z,26.90
2017-11-03T21:52:54.568Z,27.58
2017-11-03T21:55:21.259Z,27.50
2017-11-03T21:57:48.246Z,27.48
2017-11-03T22:00:15.005Z,31.02
2017-11-03T22:02:41.736Z,32.83
2017-11-03T22:05:08.832Z,30.05
2017-11-03T22:07:37.207Z,32.22
2017-11-03T22:10:04.368Z,31.42
2017-11-03T22:12:31.475Z,30.35
2017-11-03T22:14:59.003Z,29.08
2017-11-03T22:17:26.672Z,27.87
2017-11-03T22:19:54.572Z,31.25
2017-11-03T22:22:21.283Z,26.27
2017-11-03T22:24:49.028Z,26.73
2017-11-03T22:27:16.469Z,28.17
2017-11-03T22:29:43.406Z,30.67
2017-11-03T22:32:10.918Z,26.95
2017-11-03T22:34:37.611Z,27.90
2017-11-03T22:37:05.587Z,29.30
2017-11-03T22:39:32.644Z,29.12
2017-11-03T22:42:00.334Z,27.83
2017-11-03T22:44:29.132Z,27.48
2017-11-03T22:46:56.635Z,30.37
2017-11-03T22:49:24.248Z,30.05
2017-11-03T22:51:53.215Z,29.00
2017-11-03T22:54:20.959Z,29.87
2017-11-03T22:56:47.638Z,28.20
2017-11-03T22:59:14.585Z,26.45
2017-11-03T23:01:41.639Z,26.35
2017-11-03T23:04:10.344Z,26.85
2017-11-03T23:06:38.444Z,27.08
2017-11-03T23:09:05.159Z,25.65
2017-11-03T23:11:33.559Z,26.52
2017-11-03T23:14:00.999Z,28.83
2017-11-03T23:16:28.472Z,27.37
2017-11-03T23:18:55.935Z,29.77
2017-11-03T23:21:24.075Z,27.33
2017-11-03T23:23:51.655Z,27.45
2017-11-03T23:26:19.745Z,25.08
2017-11-03T23:28:47.182Z,25.23
2017-11-03T23:31:16.064Z,26.55
2017-11-03T23:33:43.936Z,23.67
2017-11-03T23:36:11.619Z,28.98
2017-11-03T23:38:39.307Z,27.45
2017-11-03T23:41:06.485Z,23.58
2017-11-03T23:43:33.551Z,24.52
2017-11-03T23:46:01.710Z,28.02
2017-11-03T23:48:30.013Z,27.35
2017-11-03T23:50:56.701Z,24.90
2017-11-03T23:53:23.413Z,26.17
2017-11-03T23:55:51.602Z,24.27
2017-11-03T23:58:18.745Z,24.35
